sensor_id;sensor_type;location;lat;lon;timestamp;P1;durP1;ratioP1;P2;durP2;ratioP2
27269;SDS011;14769;56.934;24.176;2022-08-01T00:00:25;4.47;;;2.10;;
27269;SDS011;14769;56.934;24.176;2022-08-01T00:01:27;3.72;;;2.40;;
27269;SDS011;14769;56.934;24.176;2022-08-01T00:02:29;3.90;;;2.40;;
27269;SDS011;14769;56.934;24.176;2022-08-01T00:03:32;2.88;;;2.25;;
27269;SDS011;14769;56.934;24.176;2022-08-01T00:04:34;2.72;;;2.25;;
27269;SDS011;14769;56.934;24.176;2022-08-01T00:05:36;5.35;;;2.05;;
27269;SDS011;14769;56.934;24.176;2022-08-01T00:06:37;3.03;;;2.40;;
27269;SDS011;14769;56.934;24.176;2022-08-01T00:07:39;2.83;;;2.20;;
27269;SDS011;14769;56.934;24.176;2022-08-01T00:08:41;3.28;;;2.05;;
27269;SDS011;14769;56.934;24.176;2022-08-01T00:09:43;4.90;;;2.55;;
27269;SDS011;14769;56.934;24.176;2022-08-01T00:10:45;2.88;;;1.98;;
27269;SDS011;14769;56.934;24.176;2022-08-01T00:11:46;4.63;;;2.25;;
27269;SDS011;14769;56.934;24.176;2022-08-01T00:12:59;4.05;;;2.00;;
27269;SDS011;14769;56.934;24.176;2022-08-01T00:14:01;3.08;;;2.00;;
27269;SDS011;14769;56.934;24.176;2022-08-01T00:15:04;3.10;;;2.08;;
27269;SDS011;14769;56.934;24.176;2022-08-01T00:16:07;4.35;;;2.30;;
27269;SDS011;14769;56.934;24.176;2022-08-01T00:17:09;3.42;;;2.40;;
27269;SDS011;14769;56.934;24.176;2022-08-01T00:18:11;2.50;;;2.15;;
27269;SDS011;14769;56.934;24.176;2022-08-01T00:19:13;6.30;;;2.53;;
27269;SDS011;14769;56.934;24.176;2022-08-01T00:20:14;4.38;;;2.38;;
27269;SDS011;14769;56.934;24.176;2022-08-01T00:21:17;3.10;;;2.08;;
27269;SDS011;14769;56.934;24.176;2022-08-01T00:22:19;5.07;;;2.50;;
27269;SDS011;14769;56.934;24.176;2022-08-01T00:23:20;6.38;;;2.70;;
27269;SDS011;14769;56.934;24.176;2022-08-01T00:24:22;5.80;;;2.53;;
27269;SDS011;14769;56.934;24.176;2022-08-01T00:25:24;4.18;;;2.35;;
27269;SDS011;14769;56.934;24.176;2022-08-01T00:26:34;4.18;;;2.40;;
27269;SDS011;14769;56.934;24.176;2022-08-01T00:27:36;3.22;;;2.30;;
27269;SDS011;14769;56.934;24.176;2022-08-01T00:28:38;3.95;;;2.40;;
27269;SDS011;14769;56.934;24.176;2022-08-01T00:29:40;3.60;;;2.53;;
27269;SDS011;14769;56.934;24.176;2022-08-01T00:31:02;2.78;;;2.35;;
27269;SDS011;14769;56.934;24.176;2022-08-01T00:32:04;5.97;;;2.72;;
27269;SDS011;14769;56.934;24.176;2022-08-01T00:33:06;4.65;;;2.38;;
27269;SDS011;14769;56.934;24.176;2022-08-01T00:34:08;3.42;;;2.30;;
27269;SDS011;14769;56.934;24.176;2022-08-01T00:35:10;2.58;;;2.00;;
27269;SDS011;14769;56.934;24.176;2022-08-01T00:36:12;3.70;;;2.40;;
27269;SDS011;14769;56.934;24.176;2022-08-01T00:37:14;5.63;;;2.65;;
27269;SDS011;14769;56.934;24.176;2022-08-01T00:38:16;5.53;;;2.60;;
27269;SDS011;14769;56.934;24.176;2022-08-01T00:39:18;3.92;;;2.35;;
27269;SDS011;14769;56.934;24.176;2022-08-01T00:40:20;4.22;;;2.50;;
27269;SDS011;14769;56.934;24.176;2022-08-01T00:41:22;4.55;;;2.28;;
27269;SDS011;14769;56.934;24.176;2022-08-01T00:42:24;3.72;;;2.40;;
27269;SDS011;14769;56.934;24.176;2022-08-01T00:43:26;7.72;;;2.80;;
27269;SDS011;14769;56.934;24.176;2022-08-01T00:44:28;3.55;;;2.47;;
27269;SDS011;14769;56.934;24.176;2022-08-01T00:45:30;4.88;;;2.85;;
27269;SDS011;14769;56.934;24.176;2022-08-01T00:46:32;3.78;;;2.60;;
27269;SDS011;14769;56.934;24.176;2022-08-01T00:47:34;4.07;;;2.55;;
27269;SDS011;14769;56.934;24.176;2022-08-01T00:48:36;3.28;;;2.40;;
27269;SDS011;14769;56.934;24.176;2022-08-01T00:49:37;2.75;;;2.50;;
27269;SDS011;14769;56.934;24.176;2022-08-01T00:50:40;3.90;;;2.47;;
27269;SDS011;14769;56.934;24.176;2022-08-01T00:51:42;3.17;;;2.38;;
27269;SDS011;14769;56.934;24.176;2022-08-01T00:52:44;2.85;;;2.45;;
27269;SDS011;14769;56.934;24.176;2022-08-01T00:53:52;6.60;;;2.45;;
27269;SDS011;14769;56.934;24.176;2022-08-01T00:54:55;2.97;;;2.30;;
27269;SDS011;14769;56.934;24.176;2022-08-01T00:55:57;8.00;;;2.60;;
27269;SDS011;14769;56.934;24.176;2022-08-01T00:56:59;6.00;;;2.90;;
27269;SDS011;14769;56.934;24.176;2022-08-01T00:58:01;4.90;;;2.47;;
27269;SDS011;14769;56.934;24.176;2022-08-01T00:59:06;4.88;;;2.45;;
27269;SDS011;14769;56.934;24.176;2022-08-01T01:00:09;4.90;;;2.45;;
27269;SDS011;14769;56.934;24.176;2022-08-01T01:01:12;5.68;;;2.60;;
27269;SDS011;14769;56.934;24.176;2022-08-01T01:02:14;5.22;;;3.05;;
27269;SDS011;14769;56.934;24.176;2022-08-01T01:03:17;4.90;;;2.42;;
27269;SDS011;14769;56.934;24.176;2022-08-01T01:04:19;3.53;;;2.28;;
27269;SDS011;14769;56.934;24.176;2022-08-01T01:05:21;4.68;;;2.53;;
27269;SDS011;14769;56.934;24.176;2022-08-01T01:08:02;5.18;;;2.90;;
27269;SDS011;14769;56.934;24.176;2022-08-01T01:09:16;3.42;;;2.53;;
27269;SDS011;14769;56.934;24.176;2022-08-01T01:10:56;5.55;;;2.53;;
27269;SDS011;14769;56.934;24.176;2022-08-01T01:12:05;2.50;;;2.30;;
27269;SDS011;14769;56.934;24.176;2022-08-01T01:15:58;4.88;;;2.53;;
27269;SDS011;14769;56.934;24.176;2022-08-01T01:17:01;2.42;;;2.22;;
27269;SDS011;14769;56.934;24.176;2022-08-01T01:19:11;3.75;;;2.53;;
27269;SDS011;14769;56.934;24.176;2022-08-01T01:20:18;3.53;;;2.50;;
27269;SDS011;14769;56.934;24.176;2022-08-01T01:26:22;4.63;;;2.97;;
27269;SDS011;14769;56.934;24.176;2022-08-01T01:30:17;4.20;;;2.88;;
27269;SDS011;14769;56.934;24.176;2022-08-01T01:32:33;4.45;;;3.08;;
27269;SDS011;14769;56.934;24.176;2022-08-01T01:33:39;4.30;;;3.08;;
27269;SDS011;14769;56.934;24.176;2022-08-01T01:34:48;5.30;;;2.80;;
27269;SDS011;14769;56.934;24.176;2022-08-01T01:35:52;3.80;;;2.90;;
27269;SDS011;14769;56.934;24.176;2022-08-01T01:37:01;7.28;;;3.03;;
27269;SDS011;14769;56.934;24.176;2022-08-01T01:38:05;6.50;;;3.03;;
27269;SDS011;14769;56.934;24.176;2022-08-01T01:39:11;6.90;;;3.15;;
27269;SDS011;14769;56.934;24.176;2022-08-01T01:40:15;6.38;;;3.55;;
27269;SDS011;14769;56.934;24.176;2022-08-01T01:41:18;3.50;;;3.20;;
27269;SDS011;14769;56.934;24.176;2022-08-01T01:42:22;6.15;;;2.80;;
27269;SDS011;14769;56.934;24.176;2022-08-01T01:43:28;5.68;;;2.97;;
27269;SDS011;14769;56.934;24.176;2022-08-01T01:44:34;3.88;;;3.25;;
27269;SDS011;14769;56.934;24.176;2022-08-01T01:45:37;4.35;;;3.00;;
27269;SDS011;14769;56.934;24.176;2022-08-01T01:46:41;4.32;;;3.25;;
27269;SDS011;14769;56.934;24.176;2022-08-01T01:47:44;8.13;;;3.30;;
27269;SDS011;14769;56.934;24.176;2022-08-01T01:48:47;5.38;;;3.78;;
27269;SDS011;14769;56.934;24.176;2022-08-01T01:49:49;6.32;;;3.45;;
27269;SDS011;14769;56.934;24.176;2022-08-01T01:50:53;5.70;;;3.50;;
27269;SDS011;14769;56.934;24.176;2022-08-01T01:51:58;4.90;;;2.72;;
27269;SDS011;14769;56.934;24.176;2022-08-01T01:53:03;7.32;;;3.25;;
27269;SDS011;14769;56.934;24.176;2022-08-01T01:54:15;5.50;;;3.05;;
27269;SDS011;14769;56.934;24.176;2022-08-01T01:55:17;5.55;;;3.75;;
27269;SDS011;14769;56.934;24.176;2022-08-01T01:56:22;3.55;;;2.95;;
27269;SDS011;14769;56.934;24.176;2022-08-01T01:57:25;5.65;;;2.97;;
27269;SDS011;14769;56.934;24.176;2022-08-01T01:58:28;4.28;;;3.00;;
27269;SDS011;14769;56.934;24.176;2022-08-01T01:59:34;4.00;;;2.83;;
27269;SDS011;14769;56.934;24.176;2022-08-01T02:00:37;2.63;;;2.42;;
27269;SDS011;14769;56.934;24.176;2022-08-01T02:01:42;7.10;;;2.70;;
27269;SDS011;14769;56.934;24.176;2022-08-01T02:03:05;5.05;;;2.88;;
27269;SDS011;14769;56.934;24.176;2022-08-01T02:04:09;3.90;;;2.90;;
27269;SDS011;14769;56.934;24.176;2022-08-01T02:05:12;4.60;;;3.17;;
27269;SDS011;14769;56.934;24.176;2022-08-01T02:06:14;3.40;;;3.10;;
27269;SDS011;14769;56.934;24.176;2022-08-01T02:07:20;4.75;;;2.90;;
27269;SDS011;14769;56.934;24.176;2022-08-01T02:08:23;6.90;;;2.95;;
27269;SDS011;14769;56.934;24.176;2022-08-01T02:09:26;5.97;;;3.20;;
27269;SDS011;14769;56.934;24.176;2022-08-01T02:10:30;5.03;;;2.95;;
27269;SDS011;14769;56.934;24.176;2022-08-01T02:11:33;4.03;;;2.80;;
27269;SDS011;14769;56.934;24.176;2022-08-01T02:12:58;3.40;;;2.70;;
27269;SDS011;14769;56.934;24.176;2022-08-01T02:14:02;3.88;;;2.75;;
27269;SDS011;14769;56.934;24.176;2022-08-01T02:15:05;4.07;;;2.88;;
27269;SDS011;14769;56.934;24.176;2022-08-01T02:16:08;5.05;;;3.17;;
27269;SDS011;14769;56.934;24.176;2022-08-01T02:17:12;5.05;;;2.75;;
27269;SDS011;14769;56.934;24.176;2022-08-01T02:18:18;4.55;;;2.92;;
27269;SDS011;14769;56.934;24.176;2022-08-01T02:19:24;3.55;;;2.75;;
27269;SDS011;14769;56.934;24.176;2022-08-01T02:20:27;3.90;;;3.20;;
27269;SDS011;14769;56.934;24.176;2022-08-01T02:21:44;4.85;;;2.97;;
27269;SDS011;14769;56.934;24.176;2022-08-01T02:22:52;4.78;;;3.05;;
27269;SDS011;14769;56.934;24.176;2022-08-01T02:24:00;6.57;;;2.97;;
27269;SDS011;14769;56.934;24.176;2022-08-01T02:25:19;3.17;;;2.78;;
27269;SDS011;14769;56.934;24.176;2022-08-01T02:26:25;4.82;;;2.80;;
27269;SDS011;14769;56.934;24.176;2022-08-01T02:27:30;4.05;;;2.88;;
27269;SDS011;14769;56.934;24.176;2022-08-01T02:28:37;4.47;;;2.90;;
27269;SDS011;14769;56.934;24.176;2022-08-01T02:30:48;3.58;;;2.83;;
27269;SDS011;14769;56.934;24.176;2022-08-01T02:31:51;5.07;;;2.88;;
27269;SDS011;14769;56.934;24.176;2022-08-01T02:32:59;2.85;;;2.30;;
27269;SDS011;14769;56.934;24.176;2022-08-01T02:34:17;2.60;;;2.40;;
27269;SDS011;14769;56.934;24.176;2022-08-01T02:35:22;5.72;;;2.72;;
27269;SDS011;14769;56.934;24.176;2022-08-01T02:36:28;3.53;;;2.80;;
27269;SDS011;14769;56.934;24.176;2022-08-01T02:37:34;5.05;;;3.00;;
27269;SDS011;14769;56.934;24.176;2022-08-01T02:38:44;4.00;;;2.80;;
27269;SDS011;14769;56.934;24.176;2022-08-01T02:39:48;3.53;;;2.72;;
27269;SDS011;14769;56.934;24.176;2022-08-01T02:40:54;4.75;;;2.72;;
27269;SDS011;14769;56.934;24.176;2022-08-01T02:42:00;3.70;;;2.20;;
27269;SDS011;14769;56.934;24.176;2022-08-01T02:43:07;4.30;;;2.47;;
27269;SDS011;14769;56.934;24.176;2022-08-01T02:44:15;3.20;;;2.60;;
27269;SDS011;14769;56.934;24.176;2022-08-01T02:45:28;3.65;;;2.40;;
27269;SDS011;14769;56.934;24.176;2022-08-01T02:46:41;3.40;;;2.70;;
27269;SDS011;14769;56.934;24.176;2022-08-01T02:47:48;4.00;;;2.22;;
27269;SDS011;14769;56.934;24.176;2022-08-01T02:48:52;2.90;;;2.60;;
27269;SDS011;14769;56.934;24.176;2022-08-01T02:49:57;2.75;;;2.38;;
27269;SDS011;14769;56.934;24.176;2022-08-01T02:51:01;5.43;;;2.20;;
27269;SDS011;14769;56.934;24.176;2022-08-01T02:52:06;2.70;;;2.50;;
27269;SDS011;14769;56.934;24.176;2022-08-01T02:53:11;4.05;;;2.30;;
27269;SDS011;14769;56.934;24.176;2022-08-01T02:54:15;2.67;;;2.33;;
27269;SDS011;14769;56.934;24.176;2022-08-01T02:55:19;4.07;;;2.33;;
27269;SDS011;14769;56.934;24.176;2022-08-01T02:56:22;3.15;;;2.38;;
27269;SDS011;14769;56.934;24.176;2022-08-01T02:57:25;3.05;;;2.38;;
27269;SDS011;14769;56.934;24.176;2022-08-01T02:58:45;3.65;;;2.40;;
27269;SDS011;14769;56.934;24.176;2022-08-01T02:59:50;3.15;;;2.20;;
27269;SDS011;14769;56.934;24.176;2022-08-01T03:00:56;5.10;;;2.30;;
27269;SDS011;14769;56.934;24.176;2022-08-01T03:02:00;2.80;;;2.00;;
27269;SDS011;14769;56.934;24.176;2022-08-01T03:03:06;5.00;;;2.35;;
27269;SDS011;14769;56.934;24.176;2022-08-01T03:04:09;4.22;;;2.45;;
27269;SDS011;14769;56.934;24.176;2022-08-01T03:05:12;2.85;;;2.03;;
27269;SDS011;14769;56.934;24.176;2022-08-01T03:06:16;3.10;;;2.17;;
27269;SDS011;14769;56.934;24.176;2022-08-01T03:07:19;5.05;;;2.25;;
27269;SDS011;14769;56.934;24.176;2022-08-01T03:08:22;3.13;;;2.17;;
27269;SDS011;14769;56.934;24.176;2022-08-01T03:09:26;3.88;;;2.20;;
27269;SDS011;14769;56.934;24.176;2022-08-01T03:10:30;2.22;;;2.08;;
27269;SDS011;14769;56.934;24.176;2022-08-01T03:11:34;4.13;;;2.42;;
27269;SDS011;14769;56.934;24.176;2022-08-01T03:12:40;2.03;;;1.90;;
27269;SDS011;14769;56.934;24.176;2022-08-01T03:13:47;3.08;;;2.10;;
27269;SDS011;14769;56.934;24.176;2022-08-01T03:14:51;5.20;;;2.25;;
27269;SDS011;14769;56.934;24.176;2022-08-01T03:15:56;2.35;;;2.15;;
27269;SDS011;14769;56.934;24.176;2022-08-01T03:16:59;2.38;;;2.17;;
27269;SDS011;14769;56.934;24.176;2022-08-01T03:18:03;3.88;;;2.42;;
27269;SDS011;14769;56.934;24.176;2022-08-01T03:19:08;4.47;;;2.20;;
27269;SDS011;14769;56.934;24.176;2022-08-01T03:20:13;4.15;;;2.20;;
27269;SDS011;14769;56.934;24.176;2022-08-01T03:21:16;2.75;;;2.20;;
27269;SDS011;14769;56.934;24.176;2022-08-01T03:22:24;3.47;;;2.28;;
27269;SDS011;14769;56.934;24.176;2022-08-01T03:23:27;2.65;;;1.98;;
27269;SDS011;14769;56.934;24.176;2022-08-01T03:25:41;2.55;;;2.17;;
27269;SDS011;14769;56.934;24.176;2022-08-01T03:26:45;5.55;;;2.60;;
27269;SDS011;14769;56.934;24.176;2022-08-01T03:27:50;2.97;;;2.13;;
27269;SDS011;14769;56.934;24.176;2022-08-01T03:28:56;4.53;;;2.00;;
27269;SDS011;14769;56.934;24.176;2022-08-01T03:30:03;2.75;;;1.85;;
27269;SDS011;14769;56.934;24.176;2022-08-01T03:31:07;2.33;;;1.98;;
27269;SDS011;14769;56.934;24.176;2022-08-01T03:32:10;3.13;;;1.95;;
27269;SDS011;14769;56.934;24.176;2022-08-01T03:33:14;4.88;;;2.38;;
27269;SDS011;14769;56.934;24.176;2022-08-01T03:34:16;4.13;;;2.30;;
27269;SDS011;14769;56.934;24.176;2022-08-01T03:35:18;5.63;;;1.88;;
27269;SDS011;14769;56.934;24.176;2022-08-01T03:36:26;2.58;;;2.00;;
27269;SDS011;14769;56.934;24.176;2022-08-01T03:37:32;3.50;;;1.98;;
27269;SDS011;14769;56.934;24.176;2022-08-01T03:38:59;2.53;;;2.33;;
27269;SDS011;14769;56.934;24.176;2022-08-01T03:41:43;2.10;;;1.90;;
27269;SDS011;14769;56.934;24.176;2022-08-01T03:42:58;3.40;;;1.67;;
27269;SDS011;14769;56.934;24.176;2022-08-01T03:44:05;3.67;;;2.00;;
27269;SDS011;14769;56.934;24.176;2022-08-01T03:45:14;2.17;;;2.00;;
27269;SDS011;14769;56.934;24.176;2022-08-01T03:46:21;5.68;;;1.77;;
27269;SDS011;14769;56.934;24.176;2022-08-01T03:47:31;4.57;;;1.73;;
27269;SDS011;14769;56.934;24.176;2022-08-01T03:48:48;7.75;;;2.30;;
27269;SDS011;14769;56.934;24.176;2022-08-01T03:49:52;3.72;;;1.70;;
27269;SDS011;14769;56.934;24.176;2022-08-01T03:50:57;2.78;;;1.65;;
27269;SDS011;14769;56.934;24.176;2022-08-01T03:52:03;2.97;;;1.63;;
27269;SDS011;14769;56.934;24.176;2022-08-01T03:53:08;1.77;;;1.48;;
27269;SDS011;14769;56.934;24.176;2022-08-01T03:54:13;1.50;;;1.40;;
27269;SDS011;14769;56.934;24.176;2022-08-01T03:55:17;3.55;;;1.77;;
27269;SDS011;14769;56.934;24.176;2022-08-01T03:56:21;2.28;;;1.70;;
27269;SDS011;14769;56.934;24.176;2022-08-01T03:57:26;3.50;;;1.58;;
27269;SDS011;14769;56.934;24.176;2022-08-01T03:58:38;1.67;;;1.40;;
27269;SDS011;14769;56.934;24.176;2022-08-01T03:59:41;4.15;;;2.00;;
27269;SDS011;14769;56.934;24.176;2022-08-01T04:00:44;1.92;;;1.48;;
27269;SDS011;14769;56.934;24.176;2022-08-01T04:01:47;5.72;;;1.40;;
27269;SDS011;14769;56.934;24.176;2022-08-01T04:02:51;2.45;;;1.42;;
27269;SDS011;14769;56.934;24.176;2022-08-01T04:03:53;4.63;;;1.70;;
27269;SDS011;14769;56.934;24.176;2022-08-01T04:04:56;2.67;;;1.20;;
27269;SDS011;14769;56.934;24.176;2022-08-01T04:05:58;2.05;;;1.40;;
27269;SDS011;14769;56.934;24.176;2022-08-01T04:07:02;3.30;;;1.38;;
27269;SDS011;14769;56.934;24.176;2022-08-01T04:08:07;2.45;;;1.20;;
27269;SDS011;14769;56.934;24.176;2022-08-01T04:09:10;1.25;;;1.05;;
27269;SDS011;14769;56.934;24.176;2022-08-01T04:10:14;4.10;;;0.90;;
27269;SDS011;14769;56.934;24.176;2022-08-01T04:11:16;1.92;;;0.90;;
27269;SDS011;14769;56.934;24.176;2022-08-01T04:12:18;2.03;;;1.00;;
27269;SDS011;14769;56.934;24.176;2022-08-01T04:13:20;3.47;;;0.98;;
27269;SDS011;14769;56.934;24.176;2022-08-01T04:14:21;1.88;;;0.70;;
27269;SDS011;14769;56.934;24.176;2022-08-01T04:15:23;2.22;;;0.70;;
27269;SDS011;14769;56.934;24.176;2022-08-01T04:16:25;0.95;;;0.65;;
27269;SDS011;14769;56.934;24.176;2022-08-01T04:17:27;0.75;;;0.60;;
27269;SDS011;14769;56.934;24.176;2022-08-01T04:18:29;1.13;;;0.73;;
27269;SDS011;14769;56.934;24.176;2022-08-01T04:19:31;1.70;;;0.70;;
27269;SDS011;14769;56.934;24.176;2022-08-01T04:20:33;0.60;;;0.60;;
27269;SDS011;14769;56.934;24.176;2022-08-01T04:21:36;0.70;;;0.70;;
27269;SDS011;14769;56.934;24.176;2022-08-01T04:22:39;0.57;;;0.57;;
27269;SDS011;14769;56.934;24.176;2022-08-01T04:23:41;1.98;;;0.63;;
27269;SDS011;14769;56.934;24.176;2022-08-01T04:24:47;0.77;;;0.55;;
27269;SDS011;14769;56.934;24.176;2022-08-01T04:25:56;0.60;;;0.60;;
27269;SDS011;14769;56.934;24.176;2022-08-01T04:27:01;1.20;;;0.90;;
27269;SDS011;14769;56.934;24.176;2022-08-01T04:28:06;5.45;;;0.80;;
27269;SDS011;14769;56.934;24.176;2022-08-01T04:29:12;2.20;;;0.90;;
27269;SDS011;14769;56.934;24.176;2022-08-01T04:30:18;1.33;;;0.77;;
27269;SDS011;14769;56.934;24.176;2022-08-01T04:31:30;2.30;;;0.80;;
27269;SDS011;14769;56.934;24.176;2022-08-01T04:32:34;2.83;;;0.77;;
27269;SDS011;14769;56.934;24.176;2022-08-01T04:33:42;0.68;;;0.60;;
27269;SDS011;14769;56.934;24.176;2022-08-01T04:34:49;1.08;;;0.68;;
27269;SDS011;14769;56.934;24.176;2022-08-01T04:35:52;1.25;;;0.77;;
27269;SDS011;14769;56.934;24.176;2022-08-01T04:37:04;1.65;;;0.88;;
27269;SDS011;14769;56.934;24.176;2022-08-01T04:38:08;1.55;;;0.85;;
27269;SDS011;14769;56.934;24.176;2022-08-01T04:39:11;1.50;;;0.60;;
27269;SDS011;14769;56.934;24.176;2022-08-01T04:40:14;1.63;;;0.93;;
27269;SDS011;14769;56.934;24.176;2022-08-01T04:41:18;0.85;;;0.80;;
27269;SDS011;14769;56.934;24.176;2022-08-01T04:42:21;2.80;;;0.70;;
27269;SDS011;14769;56.934;24.176;2022-08-01T04:43:30;1.27;;;0.77;;
27269;SDS011;14769;56.934;24.176;2022-08-01T04:44:33;0.70;;;0.70;;
27269;SDS011;14769;56.934;24.176;2022-08-01T04:45:35;1.98;;;1.00;;
27269;SDS011;14769;56.934;24.176;2022-08-01T04:46:38;0.80;;;0.80;;
27269;SDS011;14769;56.934;24.176;2022-08-01T04:47:41;2.20;;;0.90;;
27269;SDS011;14769;56.934;24.176;2022-08-01T04:48:44;2.03;;;0.98;;
27269;SDS011;14769;56.934;24.176;2022-08-01T04:49:47;1.63;;;0.82;;
27269;SDS011;14769;56.934;24.176;2022-08-01T04:50:49;3.80;;;0.95;;
27269;SDS011;14769;56.934;24.176;2022-08-01T04:51:54;0.95;;;0.88;;
27269;SDS011;14769;56.934;24.176;2022-08-01T04:52:58;2.58;;;1.10;;
27269;SDS011;14769;56.934;24.176;2022-08-01T04:54:00;3.53;;;1.60;;
27269;SDS011;14769;56.934;24.176;2022-08-01T04:55:04;2.90;;;0.93;;
27269;SDS011;14769;56.934;24.176;2022-08-01T04:56:07;2.05;;;1.50;;
27269;SDS011;14769;56.934;24.176;2022-08-01T04:57:09;1.40;;;0.90;;
27269;SDS011;14769;56.934;24.176;2022-08-01T04:58:11;3.60;;;0.98;;
27269;SDS011;14769;56.934;24.176;2022-08-01T04:59:19;1.02;;;0.90;;
27269;SDS011;14769;56.934;24.176;2022-08-01T05:00:40;1.17;;;0.90;;
27269;SDS011;14769;56.934;24.176;2022-08-01T05:01:42;4.57;;;1.20;;
27269;SDS011;14769;56.934;24.176;2022-08-01T05:02:44;2.15;;;0.80;;
27269;SDS011;14769;56.934;24.176;2022-08-01T05:03:46;1.75;;;0.80;;
27269;SDS011;14769;56.934;24.176;2022-08-01T05:04:48;2.10;;;0.85;;
27269;SDS011;14769;56.934;24.176;2022-08-01T05:05:50;3.13;;;0.90;;
27269;SDS011;14769;56.934;24.176;2022-08-01T05:06:52;2.30;;;0.82;;
27269;SDS011;14769;56.934;24.176;2022-08-01T05:07:54;2.50;;;1.10;;
27269;SDS011;14769;56.934;24.176;2022-08-01T05:08:57;1.08;;;0.98;;
27269;SDS011;14769;56.934;24.176;2022-08-01T05:09:59;2.15;;;0.80;;
27269;SDS011;14769;56.934;24.176;2022-08-01T05:11:05;0.70;;;0.70;;
27269;SDS011;14769;56.934;24.176;2022-08-01T05:12:08;3.10;;;1.00;;
27269;SDS011;14769;56.934;24.176;2022-08-01T05:13:10;1.13;;;1.05;;
27269;SDS011;14769;56.934;24.176;2022-08-01T05:14:12;1.52;;;0.90;;
27269;SDS011;14769;56.934;24.176;2022-08-01T05:15:14;1.15;;;0.88;;
27269;SDS011;14769;56.934;24.176;2022-08-01T05:16:17;1.10;;;0.88;;
27269;SDS011;14769;56.934;24.176;2022-08-01T05:17:18;1.60;;;0.90;;
27269;SDS011;14769;56.934;24.176;2022-08-01T05:18:20;0.80;;;0.80;;
27269;SDS011;14769;56.934;24.176;2022-08-01T05:19:29;1.10;;;0.90;;
27269;SDS011;14769;56.934;24.176;2022-08-01T05:20:35;2.40;;;0.80;;
27269;SDS011;14769;56.934;24.176;2022-08-01T05:21:38;0.88;;;0.80;;
27269;SDS011;14769;56.934;24.176;2022-08-01T05:22:40;0.70;;;0.70;;
27269;SDS011;14769;56.934;24.176;2022-08-01T05:23:42;0.95;;;0.88;;
27269;SDS011;14769;56.934;24.176;2022-08-01T05:24:44;2.50;;;0.90;;
27269;SDS011;14769;56.934;24.176;2022-08-01T05:25:49;1.63;;;0.90;;
27269;SDS011;14769;56.934;24.176;2022-08-01T05:26:58;0.95;;;0.85;;
27269;SDS011;14769;56.934;24.176;2022-08-01T05:28:00;1.45;;;0.80;;
27269;SDS011;14769;56.934;24.176;2022-08-01T05:29:03;1.10;;;0.88;;
27269;SDS011;14769;56.934;24.176;2022-08-01T05:30:08;1.50;;;0.85;;
27269;SDS011;14769;56.934;24.176;2022-08-01T05:31:10;1.02;;;0.68;;
27269;SDS011;14769;56.934;24.176;2022-08-01T05:32:12;2.78;;;0.80;;
27269;SDS011;14769;56.934;24.176;2022-08-01T05:33:14;3.83;;;1.08;;
27269;SDS011;14769;56.934;24.176;2022-08-01T05:34:16;3.67;;;0.85;;
27269;SDS011;14769;56.934;24.176;2022-08-01T05:35:18;2.25;;;0.80;;
27269;SDS011;14769;56.934;24.176;2022-08-01T05:36:20;2.28;;;0.80;;
27269;SDS011;14769;56.934;24.176;2022-08-01T05:37:22;1.48;;;0.80;;
27269;SDS011;14769;56.934;24.176;2022-08-01T05:38:24;2.05;;;0.95;;
27269;SDS011;14769;56.934;24.176;2022-08-01T05:39:26;1.30;;;1.20;;
27269;SDS011;14769;56.934;24.176;2022-08-01T05:40:27;0.63;;;0.63;;
27269;SDS011;14769;56.934;24.176;2022-08-01T05:41:29;1.48;;;1.38;;
27269;SDS011;14769;56.934;24.176;2022-08-01T05:42:31;2.08;;;1.30;;
27269;SDS011;14769;56.934;24.176;2022-08-01T05:43:33;3.45;;;1.50;;
27269;SDS011;14769;56.934;24.176;2022-08-01T05:44:35;4.03;;;1.23;;
27269;SDS011;14769;56.934;24.176;2022-08-01T05:45:37;1.45;;;0.80;;
27269;SDS011;14769;56.934;24.176;2022-08-01T05:46:39;5.68;;;1.10;;
27269;SDS011;14769;56.934;24.176;2022-08-01T05:47:41;1.95;;;0.70;;
27269;SDS011;14769;56.934;24.176;2022-08-01T05:48:43;1.20;;;0.70;;
27269;SDS011;14769;56.934;24.176;2022-08-01T05:49:45;0.73;;;0.65;;
27269;SDS011;14769;56.934;24.176;2022-08-01T05:50:47;2.22;;;0.68;;
27269;SDS011;14769;56.934;24.176;2022-08-01T05:51:49;2.33;;;0.70;;
27269;SDS011;14769;56.934;24.176;2022-08-01T05:52:51;1.05;;;0.70;;
27269;SDS011;14769;56.934;24.176;2022-08-01T05:53:52;2.55;;;0.80;;
27269;SDS011;14769;56.934;24.176;2022-08-01T05:54:55;1.42;;;0.98;;
27269;SDS011;14769;56.934;24.176;2022-08-01T05:55:56;1.05;;;0.80;;
27269;SDS011;14769;56.934;24.176;2022-08-01T05:56:58;1.05;;;0.80;;
27269;SDS011;14769;56.934;24.176;2022-08-01T05:58:03;0.90;;;0.90;;
27269;SDS011;14769;56.934;24.176;2022-08-01T05:59:04;0.80;;;0.80;;
27269;SDS011;14769;56.934;24.176;2022-08-01T06:00:07;0.73;;;0.73;;
27269;SDS011;14769;56.934;24.176;2022-08-01T06:01:09;0.90;;;0.90;;
27269;SDS011;14769;56.934;24.176;2022-08-01T06:02:11;1.30;;;0.63;;
27269;SDS011;14769;56.934;24.176;2022-08-01T06:03:13;0.60;;;0.50;;
27269;SDS011;14769;56.934;24.176;2022-08-01T06:04:15;0.80;;;0.80;;
27269;SDS011;14769;56.934;24.176;2022-08-01T06:05:17;0.60;;;0.60;;
27269;SDS011;14769;56.934;24.176;2022-08-01T06:06:20;0.50;;;0.50;;
27269;SDS011;14769;56.934;24.176;2022-08-01T06:07:25;0.80;;;0.80;;
27269;SDS011;14769;56.934;24.176;2022-08-01T06:08:27;0.77;;;0.77;;
27269;SDS011;14769;56.934;24.176;2022-08-01T06:09:30;0.73;;;0.73;;
27269;SDS011;14769;56.934;24.176;2022-08-01T06:10:32;2.10;;;0.82;;
27269;SDS011;14769;56.934;24.176;2022-08-01T06:11:33;0.85;;;0.82;;
27269;SDS011;14769;56.934;24.176;2022-08-01T06:12:35;1.00;;;0.82;;
27269;SDS011;14769;56.934;24.176;2022-08-01T06:13:38;1.35;;;0.80;;
27269;SDS011;14769;56.934;24.176;2022-08-01T06:14:48;0.70;;;0.70;;
27269;SDS011;14769;56.934;24.176;2022-08-01T06:15:50;3.45;;;0.80;;
27269;SDS011;14769;56.934;24.176;2022-08-01T06:16:52;0.80;;;0.80;;
27269;SDS011;14769;56.934;24.176;2022-08-01T06:17:54;1.65;;;0.70;;
27269;SDS011;14769;56.934;24.176;2022-08-01T06:18:56;0.90;;;0.70;;
27269;SDS011;14769;56.934;24.176;2022-08-01T06:19:58;2.58;;;1.45;;
27269;SDS011;14769;56.934;24.176;2022-08-01T06:21:01;2.05;;;1.92;;
27269;SDS011;14769;56.934;24.176;2022-08-01T06:22:03;1.13;;;1.10;;
27269;SDS011;14769;56.934;24.176;2022-08-01T06:23:05;1.83;;;0.98;;
27269;SDS011;14769;56.934;24.176;2022-08-01T06:24:27;1.65;;;1.30;;
27269;SDS011;14769;56.934;24.176;2022-08-01T06:25:29;1.88;;;0.90;;
27269;SDS011;14769;56.934;24.176;2022-08-01T06:26:31;0.80;;;0.80;;
27269;SDS011;14769;56.934;24.176;2022-08-01T06:27:34;4.80;;;1.10;;
27269;SDS011;14769;56.934;24.176;2022-08-01T06:28:36;1.70;;;1.38;;
27269;SDS011;14769;56.934;24.176;2022-08-01T06:29:40;4.85;;;0.93;;
27269;SDS011;14769;56.934;24.176;2022-08-01T06:30:54;2.05;;;0.90;;
27269;SDS011;14769;56.934;24.176;2022-08-01T06:31:56;1.58;;;1.02;;
27269;SDS011;14769;56.934;24.176;2022-08-01T06:32:58;0.88;;;0.88;;
27269;SDS011;14769;56.934;24.176;2022-08-01T06:34:01;0.75;;;0.75;;
27269;SDS011;14769;56.934;24.176;2022-08-01T06:35:03;1.08;;;0.68;;
27269;SDS011;14769;56.934;24.176;2022-08-01T06:36:07;0.93;;;0.90;;
27269;SDS011;14769;56.934;24.176;2022-08-01T06:37:10;0.77;;;0.77;;
27269;SDS011;14769;56.934;24.176;2022-08-01T06:38:15;2.92;;;0.90;;
27269;SDS011;14769;56.934;24.176;2022-08-01T06:39:17;3.10;;;0.90;;
27269;SDS011;14769;56.934;24.176;2022-08-01T06:40:19;0.80;;;0.70;;